Terminal Aerodrome Forecast
Issued by NWS

Home | Current Version | Previous Version | Text Only | Print | Product List | Glossary Off
Versions: 1 2 3 4 5 6 7 8 9 10 11 12 13 14 15 16 17 18

000
FTUS43 KICT 221100
TAFRSL
TAF
KRSL 221140Z 2212/2312 13009KT P6SM SKC
     FM221700 17013KT P6SM BKN100
     FM222000 17017G25KT P6SM BKN100=

USA.gov is the U.S. government's official web portal to all federal, state and local government web resources and services.